sensor_id;sensor_type;location;lat;lon;timestamp;temperature;humidity
68439;SHT31;55421;51.600;5.718;2023-02-07T00:01:23;2.77;84.31
68439;SHT31;55421;51.600;5.718;2023-02-07T00:03:52;2.74;84.44
68439;SHT31;55421;51.600;5.718;2023-02-07T00:06:23;2.74;84.57
68439;SHT31;55421;51.600;5.718;2023-02-07T00:08:54;2.74;84.60
68439;SHT31;55421;51.600;5.718;2023-02-07T00:11:21;2.74;84.61
68439;SHT31;55421;51.600;5.718;2023-02-07T00:13:50;2.73;84.56
68439;SHT31;55421;51.600;5.718;2023-02-07T00:16:20;2.69;84.50
68439;SHT31;55421;51.600;5.718;2023-02-07T00:18:47;2.66;84.51
68439;SHT31;55421;51.600;5.718;2023-02-07T00:21:15;2.62;84.45
68439;SHT31;55421;51.600;5.718;2023-02-07T00:23:45;2.57;84.29
68439;SHT31;55421;51.600;5.718;2023-02-07T00:26:13;2.55;84.34
68439;SHT31;55421;51.600;5.718;2023-02-07T00:28:41;2.53;84.46
68439;SHT31;55421;51.600;5.718;2023-02-07T00:31:10;2.52;84.50
68439;SHT31;55421;51.600;5.718;2023-02-07T00:33:41;2.48;84.48
68439;SHT31;55421;51.600;5.718;2023-02-07T00:36:11;2.44;84.48
68439;SHT31;55421;51.600;5.718;2023-02-07T00:38:43;2.41;84.48
68439;SHT31;55421;51.600;5.718;2023-02-07T00:41:11;2.36;84.41
68439;SHT31;55421;51.600;5.718;2023-02-07T00:43:44;2.33;84.41
68439;SHT31;55421;51.600;5.718;2023-02-07T00:46:12;2.29;84.41
68439;SHT31;55421;51.600;5.718;2023-02-07T00:48:41;2.29;84.54
68439;SHT31;55421;51.600;5.718;2023-02-07T00:51:08;2.29;84.61
68439;SHT31;55421;51.600;5.718;2023-02-07T00:53:37;2.28;84.60
68439;SHT31;55421;51.600;5.718;2023-02-07T00:56:05;2.27;84.60
68439;SHT31;55421;51.600;5.718;2023-02-07T00:58:33;2.25;84.60
68439;SHT31;55421;51.600;5.718;2023-02-07T01:01:01;2.23;84.56
68439;SHT31;55421;51.600;5.718;2023-02-07T01:03:29;2.20;84.43
68439;SHT31;55421;51.600;5.718;2023-02-07T01:05:56;2.17;84.45
68439;SHT31;55421;51.600;5.718;2023-02-07T01:08:22;2.18;84.69
68439;SHT31;55421;51.600;5.718;2023-02-07T01:10:49;2.17;84.73
68439;SHT31;55421;51.600;5.718;2023-02-07T01:13:15;2.11;84.57
68439;SHT31;55421;51.600;5.718;2023-02-07T01:15:43;2.06;84.53
68439;SHT31;55421;51.600;5.718;2023-02-07T01:18:12;2.02;84.60
68439;SHT31;55421;51.600;5.718;2023-02-07T01:20:40;1.99;84.60
68439;SHT31;55421;51.600;5.718;2023-02-07T01:23:06;1.97;84.60
68439;SHT31;55421;51.600;5.718;2023-02-07T01:25:33;1.97;84.72
68439;SHT31;55421;51.600;5.718;2023-02-07T01:27:59;1.98;84.82
68439;SHT31;55421;51.600;5.718;2023-02-07T01:30:26;1.98;84.69
68439;SHT31;55421;51.600;5.718;2023-02-07T01:32:53;1.95;84.54
68439;SHT31;55421;51.600;5.718;2023-02-07T01:35:19;1.92;84.60
68439;SHT31;55421;51.600;5.718;2023-02-07T01:37:46;1.90;84.57
68439;SHT31;55421;51.600;5.718;2023-02-07T01:40:13;1.86;84.49
68439;SHT31;55421;51.600;5.718;2023-02-07T01:42:40;1.81;84.49
68439;SHT31;55421;51.600;5.718;2023-02-07T01:47:56;1.71;84.42
68439;SHT31;55421;51.600;5.718;2023-02-07T01:50:28;1.66;84.41
68439;SHT31;55421;51.600;5.718;2023-02-07T01:52:57;1.63;84.49
68439;SHT31;55421;51.600;5.718;2023-02-07T01:55:28;1.63;84.52
68439;SHT31;55421;51.600;5.718;2023-02-07T01:58:00;1.63;84.59
68439;SHT31;55421;51.600;5.718;2023-02-07T02:00:31;1.63;84.58
68439;SHT31;55421;51.600;5.718;2023-02-07T02:02:57;1.62;84.68
68439;SHT31;55421;51.600;5.718;2023-02-07T02:05:25;1.59;84.71
68439;SHT31;55421;51.600;5.718;2023-02-07T02:07:55;1.55;84.70
68439;SHT31;55421;51.600;5.718;2023-02-07T02:10:23;1.50;84.61
68439;SHT31;55421;51.600;5.718;2023-02-07T02:16:43;1.43;84.86
68439;SHT31;55421;51.600;5.718;2023-02-07T02:35:01;1.24;84.96
68439;SHT31;55421;51.600;5.718;2023-02-07T02:37:49;1.24;85.00
68439;SHT31;55421;51.600;5.718;2023-02-07T02:43:19;1.16;84.90
68439;SHT31;55421;51.600;5.718;2023-02-07T02:45:58;1.15;84.96
68439;SHT31;55421;51.600;5.718;2023-02-07T02:48:32;1.18;85.11
68439;SHT31;55421;51.600;5.718;2023-02-07T02:51:01;1.21;85.20
68439;SHT31;55421;51.600;5.718;2023-02-07T02:53:29;1.22;85.08
68439;SHT31;55421;51.600;5.718;2023-02-07T02:56:03;1.20;84.99
68439;SHT31;55421;51.600;5.718;2023-02-07T03:02:00;1.13;84.74
68439;SHT31;55421;51.600;5.718;2023-02-07T03:05:06;1.07;84.51
68439;SHT31;55421;51.600;5.718;2023-02-07T03:07:50;1.03;84.49
68439;SHT31;55421;51.600;5.718;2023-02-07T03:10:38;1.01;84.50
68439;SHT31;55421;51.600;5.718;2023-02-07T03:13:41;0.98;84.55
68439;SHT31;55421;51.600;5.718;2023-02-07T03:16:40;0.94;84.44
68439;SHT31;55421;51.600;5.718;2023-02-07T03:19:21;0.88;84.39
68439;SHT31;55421;51.600;5.718;2023-02-07T03:21:55;0.84;84.40
68439;SHT31;55421;51.600;5.718;2023-02-07T03:24:28;0.85;84.47
68439;SHT31;55421;51.600;5.718;2023-02-07T03:27:00;0.87;84.61
68439;SHT31;55421;51.600;5.718;2023-02-07T03:29:33;0.89;84.73
68439;SHT31;55421;51.600;5.718;2023-02-07T03:32:03;0.93;84.74
68439;SHT31;55421;51.600;5.718;2023-02-07T03:34:35;0.95;84.68
68439;SHT31;55421;51.600;5.718;2023-02-07T03:37:18;0.94;84.60
68439;SHT31;55421;51.600;5.718;2023-02-07T03:39:51;0.91;84.52
68439;SHT31;55421;51.600;5.718;2023-02-07T03:42:36;0.90;84.58
68439;SHT31;55421;51.600;5.718;2023-02-07T03:45:11;0.88;84.51
68439;SHT31;55421;51.600;5.718;2023-02-07T03:47:42;0.85;84.55
68439;SHT31;55421;51.600;5.718;2023-02-07T03:50:08;0.85;84.71
68439;SHT31;55421;51.600;5.718;2023-02-07T03:52:36;0.82;84.65
68439;SHT31;55421;51.600;5.718;2023-02-07T03:55:02;0.77;84.60
68439;SHT31;55421;51.600;5.718;2023-02-07T03:57:30;0.75;84.63
68439;SHT31;55421;51.600;5.718;2023-02-07T03:59:57;0.76;84.70
68439;SHT31;55421;51.600;5.718;2023-02-07T04:02:24;0.75;84.62
68439;SHT31;55421;51.600;5.718;2023-02-07T04:04:51;0.74;84.57
68439;SHT31;55421;51.600;5.718;2023-02-07T04:07:17;0.73;84.67
68439;SHT31;55421;51.600;5.718;2023-02-07T04:09:44;0.68;84.48
68439;SHT31;55421;51.600;5.718;2023-02-07T04:12:10;0.64;84.49
68439;SHT31;55421;51.600;5.718;2023-02-07T04:14:37;0.63;84.60
68439;SHT31;55421;51.600;5.718;2023-02-07T04:17:03;0.64;84.59
68439;SHT31;55421;51.600;5.718;2023-02-07T04:19:29;0.69;84.78
68439;SHT31;55421;51.600;5.718;2023-02-07T04:21:56;0.77;84.94
68439;SHT31;55421;51.600;5.718;2023-02-07T04:24:22;0.82;84.90
68439;SHT31;55421;51.600;5.718;2023-02-07T04:26:49;0.84;84.88
68439;SHT31;55421;51.600;5.718;2023-02-07T04:29:16;0.83;84.80
68439;SHT31;55421;51.600;5.718;2023-02-07T04:31:42;0.83;84.75
68439;SHT31;55421;51.600;5.718;2023-02-07T04:34:09;0.84;84.77
68439;SHT31;55421;51.600;5.718;2023-02-07T04:36:36;0.86;84.80
68439;SHT31;55421;51.600;5.718;2023-02-07T04:39:03;0.86;84.86
68439;SHT31;55421;51.600;5.718;2023-02-07T04:41:29;0.88;84.98
68439;SHT31;55421;51.600;5.718;2023-02-07T04:43:56;0.87;85.02
68439;SHT31;55421;51.600;5.718;2023-02-07T04:46:22;0.86;85.00
68439;SHT31;55421;51.600;5.718;2023-02-07T04:48:49;0.87;85.02
68439;SHT31;55421;51.600;5.718;2023-02-07T04:51:15;0.85;85.00
68439;SHT31;55421;51.600;5.718;2023-02-07T04:53:42;0.82;85.00
68439;SHT31;55421;51.600;5.718;2023-02-07T04:56:08;0.79;85.00
68439;SHT31;55421;51.600;5.718;2023-02-07T04:58:35;0.75;85.00
68439;SHT31;55421;51.600;5.718;2023-02-07T05:01:01;0.73;85.02
68439;SHT31;55421;51.600;5.718;2023-02-07T05:03:28;0.70;85.00
68439;SHT31;55421;51.600;5.718;2023-02-07T05:05:54;0.67;85.00
68439;SHT31;55421;51.600;5.718;2023-02-07T05:08:21;0.64;85.00
68439;SHT31;55421;51.600;5.718;2023-02-07T05:10:51;0.58;85.01
68439;SHT31;55421;51.600;5.718;2023-02-07T05:13:20;0.56;85.05
68439;SHT31;55421;51.600;5.718;2023-02-07T05:15:48;0.55;85.06
68439;SHT31;55421;51.600;5.718;2023-02-07T05:18:15;0.56;85.06
68439;SHT31;55421;51.600;5.718;2023-02-07T05:20:41;0.54;85.00
68439;SHT31;55421;51.600;5.718;2023-02-07T05:23:08;0.53;85.00
68439;SHT31;55421;51.600;5.718;2023-02-07T05:25:36;0.52;85.04
68439;SHT31;55421;51.600;5.718;2023-02-07T05:28:03;0.51;85.01
68439;SHT31;55421;51.600;5.718;2023-02-07T05:30:29;0.51;85.00
68439;SHT31;55421;51.600;5.718;2023-02-07T05:32:56;0.53;85.00
68439;SHT31;55421;51.600;5.718;2023-02-07T05:35:29;0.54;85.00
68439;SHT31;55421;51.600;5.718;2023-02-07T05:38:09;0.54;85.00
68439;SHT31;55421;51.600;5.718;2023-02-07T05:40:39;0.52;84.99
68439;SHT31;55421;51.600;5.718;2023-02-07T05:43:06;0.49;84.94
68439;SHT31;55421;51.600;5.718;2023-02-07T05:45:34;0.47;84.90
68439;SHT31;55421;51.600;5.718;2023-02-07T05:48:01;0.43;84.90
68439;SHT31;55421;51.600;5.718;2023-02-07T05:50:28;0.41;84.90
68439;SHT31;55421;51.600;5.718;2023-02-07T05:52:55;0.37;84.89
68439;SHT31;55421;51.600;5.718;2023-02-07T05:55:21;0.30;84.90
68439;SHT31;55421;51.600;5.718;2023-02-07T05:57:48;0.25;84.82
68439;SHT31;55421;51.600;5.718;2023-02-07T06:00:15;0.20;84.80
68439;SHT31;55421;51.600;5.718;2023-02-07T06:02:44;0.16;84.80
68439;SHT31;55421;51.600;5.718;2023-02-07T06:05:12;0.11;84.81
68439;SHT31;55421;51.600;5.718;2023-02-07T06:07:43;0.06;84.86
68439;SHT31;55421;51.600;5.718;2023-02-07T06:10:10;0.01;84.86
68439;SHT31;55421;51.600;5.718;2023-02-07T06:12:37;-0.04;84.83
68439;SHT31;55421;51.600;5.718;2023-02-07T06:15:05;-0.06;84.90
68439;SHT31;55421;51.600;5.718;2023-02-07T06:17:32;-0.08;84.92
68439;SHT31;55421;51.600;5.718;2023-02-07T06:19:59;-0.11;85.00
68439;SHT31;55421;51.600;5.718;2023-02-07T06:22:25;-0.12;85.04
68439;SHT31;55421;51.600;5.718;2023-02-07T06:24:52;-0.17;85.05
68439;SHT31;55421;51.600;5.718;2023-02-07T06:27:18;-0.20;85.00
68439;SHT31;55421;51.600;5.718;2023-02-07T06:29:44;-0.22;85.00
68439;SHT31;55421;51.600;5.718;2023-02-07T06:32:11;-0.23;85.00
68439;SHT31;55421;51.600;5.718;2023-02-07T06:34:37;-0.24;85.05
68439;SHT31;55421;51.600;5.718;2023-02-07T06:37:04;-0.24;85.10
68439;SHT31;55421;51.600;5.718;2023-02-07T06:39:31;-0.26;85.10
68439;SHT31;55421;51.600;5.718;2023-02-07T06:41:57;-0.28;85.10
68439;SHT31;55421;51.600;5.718;2023-02-07T06:44:23;-0.29;85.10
68439;SHT31;55421;51.600;5.718;2023-02-07T06:46:50;-0.27;85.16
68439;SHT31;55421;51.600;5.718;2023-02-07T06:49:16;-0.26;85.20
68439;SHT31;55421;51.600;5.718;2023-02-07T06:51:43;-0.25;85.20
68439;SHT31;55421;51.600;5.718;2023-02-07T06:54:09;-0.26;85.14
68439;SHT31;55421;51.600;5.718;2023-02-07T06:56:36;-0.30;84.99
68439;SHT31;55421;51.600;5.718;2023-02-07T06:59:03;-0.36;84.85
68439;SHT31;55421;51.600;5.718;2023-02-07T07:01:30;-0.45;84.66
68439;SHT31;55421;51.600;5.718;2023-02-07T07:03:56;-0.51;84.60
68439;SHT31;55421;51.600;5.718;2023-02-07T07:06:24;-0.57;84.60
68439;SHT31;55421;51.600;5.718;2023-02-07T07:08:51;-0.60;84.68
68439;SHT31;55421;51.600;5.718;2023-02-07T07:11:17;-0.62;84.78
68439;SHT31;55421;51.600;5.718;2023-02-07T07:13:44;-0.63;84.80
68439;SHT31;55421;51.600;5.718;2023-02-07T07:16:11;-0.62;84.80
68439;SHT31;55421;51.600;5.718;2023-02-07T07:18:38;-0.58;84.87
68439;SHT31;55421;51.600;5.718;2023-02-07T07:21:06;-0.54;84.90
68439;SHT31;55421;51.600;5.718;2023-02-07T07:23:33;-0.54;84.85
68439;SHT31;55421;51.600;5.718;2023-02-07T07:26:01;-0.56;84.80
68439;SHT31;55421;51.600;5.718;2023-02-07T07:28:28;-0.56;84.81
68439;SHT31;55421;51.600;5.718;2023-02-07T07:31:00;-0.54;84.79
68439;SHT31;55421;51.600;5.718;2023-02-07T07:33:32;-0.51;84.72
68439;SHT31;55421;51.600;5.718;2023-02-07T07:36:00;-0.50;84.65
68439;SHT31;55421;51.600;5.718;2023-02-07T07:38:27;-0.49;84.66
68439;SHT31;55421;51.600;5.718;2023-02-07T07:40:53;-0.48;84.60
68439;SHT31;55421;51.600;5.718;2023-02-07T07:43:20;-0.49;84.59
68439;SHT31;55421;51.600;5.718;2023-02-07T07:45:51;-0.50;84.52
68439;SHT31;55421;51.600;5.718;2023-02-07T07:48:23;-0.49;84.42
68439;SHT31;55421;51.600;5.718;2023-02-07T07:50:50;-0.48;84.32
68439;SHT31;55421;51.600;5.718;2023-02-07T07:53:18;-0.48;84.26
68439;SHT31;55421;51.600;5.718;2023-02-07T07:55:52;-0.49;84.19
68439;SHT31;55421;51.600;5.718;2023-02-07T07:58:22;-0.52;84.11
68439;SHT31;55421;51.600;5.718;2023-02-07T08:00:51;-0.56;84.06
68439;SHT31;55421;51.600;5.718;2023-02-07T08:03:18;-0.58;83.92
68439;SHT31;55421;51.600;5.718;2023-02-07T08:05:45;-0.61;83.83
68439;SHT31;55421;51.600;5.718;2023-02-07T08:08:12;-0.63;83.80
68439;SHT31;55421;51.600;5.718;2023-02-07T08:10:40;-0.63;83.82
68439;SHT31;55421;51.600;5.718;2023-02-07T08:13:07;-0.63;83.90
68439;SHT31;55421;51.600;5.718;2023-02-07T08:15:34;-0.63;83.94
68439;SHT31;55421;51.600;5.718;2023-02-07T08:18:00;-0.59;83.99
68439;SHT31;55421;51.600;5.718;2023-02-07T08:20:27;-0.53;84.00
68439;SHT31;55421;51.600;5.718;2023-02-07T08:22:53;-0.46;84.04
68439;SHT31;55421;51.600;5.718;2023-02-07T08:25:20;-0.37;84.10
68439;SHT31;55421;51.600;5.718;2023-02-07T08:27:47;-0.30;84.07
68439;SHT31;55421;51.600;5.718;2023-02-07T08:30:13;-0.24;83.96
68439;SHT31;55421;51.600;5.718;2023-02-07T08:32:41;-0.19;83.82
68439;SHT31;55421;51.600;5.718;2023-02-07T08:35:07;-0.15;83.80
68439;SHT31;55421;51.600;5.718;2023-02-07T08:37:35;-0.07;83.80
68439;SHT31;55421;51.600;5.718;2023-02-07T08:40:02;0.00;83.77
68439;SHT31;55421;51.600;5.718;2023-02-07T08:42:31;0.08;83.68
68439;SHT31;55421;51.600;5.718;2023-02-07T08:44:58;0.14;83.60
68439;SHT31;55421;51.600;5.718;2023-02-07T08:47:24;0.19;83.69
68439;SHT31;55421;51.600;5.718;2023-02-07T08:49:51;0.22;83.64
68439;SHT31;55421;51.600;5.718;2023-02-07T08:52:17;0.23;83.58
68439;SHT31;55421;51.600;5.718;2023-02-07T08:54:44;0.27;83.58
68439;SHT31;55421;51.600;5.718;2023-02-07T08:57:11;0.31;83.54
68439;SHT31;55421;51.600;5.718;2023-02-07T08:59:37;0.34;83.57
68439;SHT31;55421;51.600;5.718;2023-02-07T09:02:04;0.38;83.55
68439;SHT31;55421;51.600;5.718;2023-02-07T09:04:30;0.39;83.50
68439;SHT31;55421;51.600;5.718;2023-02-07T09:06:57;0.41;83.50
68439;SHT31;55421;51.600;5.718;2023-02-07T09:09:23;0.43;83.48
68439;SHT31;55421;51.600;5.718;2023-02-07T09:11:50;0.47;83.47
68439;SHT31;55421;51.600;5.718;2023-02-07T09:14:16;0.53;83.50
68439;SHT31;55421;51.600;5.718;2023-02-07T09:16:43;0.56;83.50
68439;SHT31;55421;51.600;5.718;2023-02-07T09:19:10;0.60;83.51
68439;SHT31;55421;51.600;5.718;2023-02-07T09:21:36;0.63;83.46
68439;SHT31;55421;51.600;5.718;2023-02-07T09:24:03;0.69;83.48
68439;SHT31;55421;51.600;5.718;2023-02-07T09:26:29;0.77;83.50
68439;SHT31;55421;51.600;5.718;2023-02-07T09:28:58;0.82;83.47
68439;SHT31;55421;51.600;5.718;2023-02-07T09:31:24;0.87;83.42
68439;SHT31;55421;51.600;5.718;2023-02-07T09:33:51;0.93;83.40
68439;SHT31;55421;51.600;5.718;2023-02-07T09:36:19;0.98;83.41
68439;SHT31;55421;51.600;5.718;2023-02-07T09:38:49;1.04;83.40
68439;SHT31;55421;51.600;5.718;2023-02-07T09:41:21;1.14;83.40
68439;SHT31;55421;51.600;5.718;2023-02-07T09:44:04;1.23;83.40
68439;SHT31;55421;51.600;5.718;2023-02-07T09:49:40;1.36;83.30
68439;SHT31;55421;51.600;5.718;2023-02-07T09:52:17;1.41;83.19
68439;SHT31;55421;51.600;5.718;2023-02-07T09:54:51;1.45;83.05
68439;SHT31;55421;51.600;5.718;2023-02-07T09:57:24;1.51;82.99
68439;SHT31;55421;51.600;5.718;2023-02-07T10:02:53;1.64;82.83
68439;SHT31;55421;51.600;5.718;2023-02-07T10:05:28;1.69;82.66
68439;SHT31;55421;51.600;5.718;2023-02-07T10:08:07;1.72;82.55
68439;SHT31;55421;51.600;5.718;2023-02-07T10:22:20;2.10;82.07
68439;SHT31;55421;51.600;5.718;2023-02-07T10:30:41;2.31;81.79
68439;SHT31;55421;51.600;5.718;2023-02-07T10:33:15;2.40;81.68
68439;SHT31;55421;51.600;5.718;2023-02-07T10:35:45;2.48;81.58
68439;SHT31;55421;51.600;5.718;2023-02-07T10:38:20;2.54;81.50
68439;SHT31;55421;51.600;5.718;2023-02-07T10:41:00;2.62;81.46
68439;SHT31;55421;51.600;5.718;2023-02-07T10:43:35;2.66;81.22
68439;SHT31;55421;51.600;5.718;2023-02-07T10:46:04;2.74;81.29
68439;SHT31;55421;51.600;5.718;2023-02-07T10:48:35;2.82;81.08
68439;SHT31;55421;51.600;5.718;2023-02-07T10:51:05;2.91;80.87
68439;SHT31;55421;51.600;5.718;2023-02-07T10:54:05;3.03;80.70
68439;SHT31;55421;51.600;5.718;2023-02-07T10:56:46;3.12;80.47
68439;SHT31;55421;51.600;5.718;2023-02-07T11:04:53;3.32;80.07
68439;SHT31;55421;51.600;5.718;2023-02-07T11:07:22;3.35;79.79
68439;SHT31;55421;51.600;5.718;2023-02-07T11:09:51;3.40;79.49
68439;SHT31;55421;51.600;5.718;2023-02-07T11:12:47;3.45;79.36
68439;SHT31;55421;51.600;5.718;2023-02-07T11:15:19;3.54;79.36
68439;SHT31;55421;51.600;5.718;2023-02-07T11:17:52;3.62;79.44
68439;SHT31;55421;51.600;5.718;2023-02-07T11:20:30;3.71;79.16
68439;SHT31;55421;51.600;5.718;2023-02-07T11:23:04;3.83;79.14
68439;SHT31;55421;51.600;5.718;2023-02-07T11:25:40;3.92;78.70
68439;SHT31;55421;51.600;5.718;2023-02-07T11:30:52;4.07;78.03
68439;SHT31;55421;51.600;5.718;2023-02-07T11:33:25;4.17;77.97
68439;SHT31;55421;51.600;5.718;2023-02-07T11:36:19;4.22;77.58
68439;SHT31;55421;51.600;5.718;2023-02-07T11:38:58;4.21;76.99
68439;SHT31;55421;51.600;5.718;2023-02-07T11:41:27;4.20;76.76
68439;SHT31;55421;51.600;5.718;2023-02-07T11:43:57;4.20;76.68
68439;SHT31;55421;51.600;5.718;2023-02-07T11:46:44;4.20;76.59
68439;SHT31;55421;51.600;5.718;2023-02-07T11:49:22;4.25;76.60
68439;SHT31;55421;51.600;5.718;2023-02-07T11:51:58;4.30;76.48
68439;SHT31;55421;51.600;5.718;2023-02-07T11:54:28;4.33;76.28
68439;SHT31;55421;51.600;5.718;2023-02-07T11:57:00;4.36;76.21
68439;SHT31;55421;51.600;5.718;2023-02-07T11:59:30;4.38;76.24
68439;SHT31;55421;51.600;5.718;2023-02-07T12:01:59;4.38;76.36
68439;SHT31;55421;51.600;5.718;2023-02-07T12:04:42;4.36;76.23
68439;SHT31;55421;51.600;5.718;2023-02-07T12:07:14;4.35;76.23
68439;SHT31;55421;51.600;5.718;2023-02-07T12:09:51;4.32;76.17
68439;SHT31;55421;51.600;5.718;2023-02-07T12:15:41;4.33;76.32
68439;SHT31;55421;51.600;5.718;2023-02-07T12:18:20;4.35;76.24
68439;SHT31;55421;51.600;5.718;2023-02-07T12:21:01;4.35;75.99
68439;SHT31;55421;51.600;5.718;2023-02-07T12:23:44;4.37;75.54
68439;SHT31;55421;51.600;5.718;2023-02-07T12:26:39;4.39;75.07
68439;SHT31;55421;51.600;5.718;2023-02-07T12:29:25;4.39;75.24
68439;SHT31;55421;51.600;5.718;2023-02-07T12:41:10;4.44;74.98
68439;SHT31;55421;51.600;5.718;2023-02-07T12:43:49;4.49;74.96
68439;SHT31;55421;51.600;5.718;2023-02-07T12:49:46;4.64;74.75
68439;SHT31;55421;51.600;5.718;2023-02-07T12:56:04;4.75;74.09
68439;SHT31;55421;51.600;5.718;2023-02-07T13:04:36;4.82;72.91
68439;SHT31;55421;51.600;5.718;2023-02-07T13:10:29;4.85;72.79
68439;SHT31;55421;51.600;5.718;2023-02-07T13:22:06;5.02;71.84
68439;SHT31;55421;51.600;5.718;2023-02-07T13:24:50;5.09;71.61
68439;SHT31;55421;51.600;5.718;2023-02-07T13:27:20;5.14;71.26
68439;SHT31;55421;51.600;5.718;2023-02-07T13:29:50;5.16;70.84
68439;SHT31;55421;51.600;5.718;2023-02-07T13:32:19;5.18;70.80
68439;SHT31;55421;51.600;5.718;2023-02-07T13:37:35;5.23;70.83
68439;SHT31;55421;51.600;5.718;2023-02-07T13:46:59;5.24;70.41
68439;SHT31;55421;51.600;5.718;2023-02-07T13:49:49;5.26;70.49
68439;SHT31;55421;51.600;5.718;2023-02-07T13:55:14;5.22;70.42
68439;SHT31;55421;51.600;5.718;2023-02-07T13:57:58;5.24;70.31
68439;SHT31;55421;51.600;5.718;2023-02-07T14:03:29;5.34;69.91
68439;SHT31;55421;51.600;5.718;2023-02-07T14:11:40;5.45;69.37
68439;SHT31;55421;51.600;5.718;2023-02-07T14:17:02;5.43;68.92
68439;SHT31;55421;51.600;5.718;2023-02-07T14:25:11;5.38;69.71
68439;SHT31;55421;51.600;5.718;2023-02-07T14:35:32;5.33;69.15
68439;SHT31;55421;51.600;5.718;2023-02-07T14:38:08;5.34;68.92
68439;SHT31;55421;51.600;5.718;2023-02-07T14:41:09;5.39;68.74
68439;SHT31;55421;51.600;5.718;2023-02-07T14:43:49;5.43;68.34
68439;SHT31;55421;51.600;5.718;2023-02-07T14:46:25;5.47;68.17
68439;SHT31;55421;51.600;5.718;2023-02-07T14:49:12;5.48;68.00
68439;SHT31;55421;51.600;5.718;2023-02-07T14:51:51;5.46;67.75
68439;SHT31;55421;51.600;5.718;2023-02-07T14:57:23;5.42;67.54
68439;SHT31;55421;51.600;5.718;2023-02-07T15:00:47;5.41;67.44
68439;SHT31;55421;51.600;5.718;2023-02-07T15:03:19;5.40;67.44
68439;SHT31;55421;51.600;5.718;2023-02-07T15:05:49;5.37;67.66
68439;SHT31;55421;51.600;5.718;2023-02-07T15:08:25;5.34;68.20
68439;SHT31;55421;51.600;5.718;2023-02-07T15:10:59;5.30;68.52
68439;SHT31;55421;51.600;5.718;2023-02-07T15:13:29;5.26;68.70
68439;SHT31;55421;51.600;5.718;2023-02-07T15:16:07;5.20;68.56
68439;SHT31;55421;51.600;5.718;2023-02-07T15:19:29;5.13;68.47
68439;SHT31;55421;51.600;5.718;2023-02-07T15:21:56;5.06;68.86
68439;SHT31;55421;51.600;5.718;2023-02-07T15:24:25;4.99;68.93
68439;SHT31;55421;51.600;5.718;2023-02-07T15:27:19;4.93;69.20
68439;SHT31;55421;51.600;5.718;2023-02-07T15:30:02;4.87;69.41
68439;SHT31;55421;51.600;5.718;2023-02-07T15:32:39;4.80;69.59
68439;SHT31;55421;51.600;5.718;2023-02-07T15:35:19;4.77;69.71
68439;SHT31;55421;51.600;5.718;2023-02-07T15:38:11;4.71;70.01
68439;SHT31;55421;51.600;5.718;2023-02-07T15:40:47;4.68;70.18
68439;SHT31;55421;51.600;5.718;2023-02-07T15:43:26;4.68;70.20
68439;SHT31;55421;51.600;5.718;2023-02-07T15:45:59;4.67;70.34
68439;SHT31;55421;51.600;5.718;2023-02-07T15:51:22;4.62;70.86
68439;SHT31;55421;51.600;5.718;2023-02-07T15:53:57;4.58;70.98
68439;SHT31;55421;51.600;5.718;2023-02-07T15:56:26;4.54;70.88
68439;SHT31;55421;51.600;5.718;2023-02-07T15:58:58;4.49;70.91
68439;SHT31;55421;51.600;5.718;2023-02-07T16:01:33;4.43;71.04
68439;SHT31;55421;51.600;5.718;2023-02-07T16:04:01;4.36;71.14
68439;SHT31;55421;51.600;5.718;2023-02-07T16:06:29;4.31;71.10
68439;SHT31;55421;51.600;5.718;2023-02-07T16:08:58;4.24;71.10
68439;SHT31;55421;51.600;5.718;2023-02-07T16:14:08;4.11;71.29
68439;SHT31;55421;51.600;5.718;2023-02-07T16:16:47;4.05;71.59
68439;SHT31;55421;51.600;5.718;2023-02-07T16:19:33;4.03;71.81
68439;SHT31;55421;51.600;5.718;2023-02-07T16:22:04;4.01;71.93
68439;SHT31;55421;51.600;5.718;2023-02-07T16:24:37;3.98;71.98
68439;SHT31;55421;51.600;5.718;2023-02-07T16:27:11;3.93;72.00
68439;SHT31;55421;51.600;5.718;2023-02-07T16:29:44;3.88;72.00
68439;SHT31;55421;51.600;5.718;2023-02-07T16:32:12;3.83;72.00
68439;SHT31;55421;51.600;5.718;2023-02-07T16:34:41;3.78;72.08
68439;SHT31;55421;51.600;5.718;2023-02-07T16:37:09;3.72;72.14
68439;SHT31;55421;51.600;5.718;2023-02-07T16:39:38;3.66;72.26
68439;SHT31;55421;51.600;5.718;2023-02-07T16:42:05;3.59;72.30
68439;SHT31;55421;51.600;5.718;2023-02-07T16:44:36;3.52;72.36
68439;SHT31;55421;51.600;5.718;2023-02-07T16:47:04;3.44;72.41
68439;SHT31;55421;51.600;5.718;2023-02-07T16:49:31;3.37;72.45
68439;SHT31;55421;51.600;5.718;2023-02-07T16:51:58;3.33;72.51
68439;SHT31;55421;51.600;5.718;2023-02-07T16:54:25;3.29;72.50
68439;SHT31;55421;51.600;5.718;2023-02-07T16:56:53;3.25;72.50
68439;SHT31;55421;51.600;5.718;2023-02-07T16:59:23;3.22;72.49
68439;SHT31;55421;51.600;5.718;2023-02-07T17:01:51;3.19;72.50
68439;SHT31;55421;51.600;5.718;2023-02-07T17:04:19;3.15;72.57
68439;SHT31;55421;51.600;5.718;2023-02-07T17:06:47;3.12;72.59
68439;SHT31;55421;51.600;5.718;2023-02-07T17:09:21;3.06;72.66
68439;SHT31;55421;51.600;5.718;2023-02-07T17:11:51;3.01;72.63
68439;SHT31;55421;51.600;5.718;2023-02-07T17:14:19;2.96;72.71
68439;SHT31;55421;51.600;5.718;2023-02-07T17:16:47;2.90;72.81
68439;SHT31;55421;51.600;5.718;2023-02-07T17:19:15;2.84;72.96
68439;SHT31;55421;51.600;5.718;2023-02-07T17:21:51;2.78;73.08
68439;SHT31;55421;51.600;5.718;2023-02-07T17:24:17;2.70;73.27
68439;SHT31;55421;51.600;5.718;2023-02-07T17:26:46;2.65;73.39
68439;SHT31;55421;51.600;5.718;2023-02-07T17:29:17;2.63;73.50
68439;SHT31;55421;51.600;5.718;2023-02-07T17:31:44;2.63;73.50
68439;SHT31;55421;51.600;5.718;2023-02-07T17:34:12;2.63;73.43
68439;SHT31;55421;51.600;5.718;2023-02-07T17:36:43;2.63;73.53
68439;SHT31;55421;51.600;5.718;2023-02-07T17:39:13;2.63;73.65
68439;SHT31;55421;51.600;5.718;2023-02-07T17:41:42;2.63;73.69
68439;SHT31;55421;51.600;5.718;2023-02-07T17:44:09;2.62;73.76
68439;SHT31;55421;51.600;5.718;2023-02-07T17:46:36;2.58;73.84
68439;SHT31;55421;51.600;5.718;2023-02-07T17:49:03;2.53;73.80
68439;SHT31;55421;51.600;5.718;2023-02-07T17:51:29;2.49;73.88
68439;SHT31;55421;51.600;5.718;2023-02-07T17:53:56;2.42;73.91
68439;SHT31;55421;51.600;5.718;2023-02-07T17:56:27;2.37;74.05
68439;SHT31;55421;51.600;5.718;2023-02-07T17:58:58;2.31;74.22
68439;SHT31;55421;51.600;5.718;2023-02-07T18:01:30;2.26;74.40
68439;SHT31;55421;51.600;5.718;2023-02-07T18:03:58;2.19;74.49
68439;SHT31;55421;51.600;5.718;2023-02-07T18:06:26;2.13;74.59
68439;SHT31;55421;51.600;5.718;2023-02-07T18:08:55;2.09;74.66
68439;SHT31;55421;51.600;5.718;2023-02-07T18:11:24;2.04;74.74
68439;SHT31;55421;51.600;5.718;2023-02-07T18:13:52;1.97;74.85
68439;SHT31;55421;51.600;5.718;2023-02-07T18:16:21;1.90;75.02
68439;SHT31;55421;51.600;5.718;2023-02-07T18:18:50;1.85;75.24
68439;SHT31;55421;51.600;5.718;2023-02-07T18:21:19;1.81;75.40
68439;SHT31;55421;51.600;5.718;2023-02-07T18:23:46;1.79;75.53
68439;SHT31;55421;51.600;5.718;2023-02-07T18:26:13;1.79;75.58
68439;SHT31;55421;51.600;5.718;2023-02-07T18:28:44;1.80;75.60
68439;SHT31;55421;51.600;5.718;2023-02-07T18:31:16;1.84;75.59
68439;SHT31;55421;51.600;5.718;2023-02-07T18:33:49;1.85;75.48